Time;durP1;ratioP1;P1;durP2;ratioP2;P2;SDS_P1;SDS_P2;PMS_P1;PMS_P2;Temp;Humidity;BMP_temperature;BMP_pressure;BME280_temperature;BME280_humidity;BME280_pressure;Samples;Min_cycle;Max_cycle;Signal;HPM_P1;HPM_P2
2021/05/01 00:00:49;;;;;;;;;;;13.80;50.40;;;;;;5052473;28;75158;-67
2021/05/01 00:03:14;;;;;;;;;;;13.80;50.60;;;;;;5052440;28;76996;-65
2021/05/01 00:05:40;;;;;;;;;;;13.90;50.50;;;;;;5053510;28;75708;-65
2021/05/01 00:08:06;;;;;;;;;;;13.70;50.40;;;;;;5053927;28;75154;-66
2021/05/01 00:10:31;;;;;;;;;;;13.80;50.40;;;;;;5051550;27;77443;-65
2021/05/01 00:12:57;;;;;;;;;;;13.70;50.60;;;;;;5052039;28;76642;-66
2021/05/01 00:15:23;;;;;;;;;;;13.80;50.60;;;;;;5053640;28;75112;-67
2021/05/01 00:17:48;;;;;;;;;;;13.70;50.80;;;;;;5051946;28;77562;-67
2021/05/01 00:20:14;;;;;;;;;;;13.70;50.70;;;;;;5053450;28;75190;-67
2021/05/01 00:22:40;;;;;;;;;;;13.70;50.90;;;;;;5053491;28;75125;-66
2021/05/01 00:25:06;;;;;;;;;;;13.70;51.00;;;;;;5051617;28;77429;-66
2021/05/01 00:27:31;;;;;;;;;;;13.70;51.20;;;;;;5052940;28;75393;-64
2021/05/01 00:29:57;;;;;;;;;;;13.80;51.20;;;;;;5051795;28;77397;-64
2021/05/01 00:32:23;;;;;;;;;;;13.80;51.40;;;;;;5052140;28;75254;-64
2021/05/01 00:34:48;;;;;;;;;;;13.80;51.50;;;;;;5051761;28;75539;-66
2021/05/01 00:37:14;;;;;;;;;;;13.80;51.60;;;;;;5053134;28;75370;-64
2021/05/01 00:39:39;;;;;;;;;;;13.80;51.80;;;;;;5053224;28;75125;-65
2021/05/01 00:42:05;;;;;;;;;;;13.80;51.70;;;;;;5051428;28;76485;-65
2021/05/01 00:44:31;;;;;;;;;;;13.80;51.60;;;;;;5053033;28;75174;-64
2021/05/01 00:46:56;;;;;;;;;;;13.80;51.70;;;;;;5051864;28;77391;-64
2021/05/01 00:49:22;;;;;;;;;;;13.80;52.10;;;;;;5051589;27;75736;-64
2021/05/01 00:51:47;;;;;;;;;;;13.70;52.60;;;;;;5053176;28;77064;-65
2021/05/01 00:54:13;;;;;;;;;;;13.70;53.30;;;;;;5051358;28;77172;-65
2021/05/01 00:56:39;;;;;;;;;;;13.60;53.90;;;;;;5051163;28;76077;-66
2021/05/01 00:59:05;;;;;;;;;;;13.60;53.90;;;;;;5085385;27;75729;-66
2021/05/01 01:01:31;;;;;;;;;;;13.60;54.20;;;;;;5051078;28;75501;-67
2021/05/01 01:03:56;;;;;;;;;;;13.60;54.40;;;;;;5051731;28;76902;-66
2021/05/01 01:06:22;;;;;;;;;;;13.50;54.40;;;;;;5053353;28;74580;-69
2021/05/01 01:08:47;;;;;;;;;;;13.50;55.00;;;;;;5052760;28;75124;-69
2021/05/01 01:11:14;;;;;;;;;;;13.50;55.20;;;;;;5050943;28;76898;-67
2021/05/01 01:13:40;;;;;;;;;;;13.50;55.20;;;;;;5050993;28;74577;-66
2021/05/01 01:16:05;;;;;;;;;;;13.50;55.10;;;;;;5051622;28;77316;-66
2021/05/01 01:18:31;;;;;;;;;;;13.40;55.40;;;;;;5052778;28;75812;-67
2021/05/01 01:21:00;;;;;;;;;;;13.40;55.60;;;;;;5050427;27;76420;-66
2021/05/01 01:23:26;;;;;;;;;;;13.30;55.90;;;;;;5050958;28;78040;-66
2021/05/01 01:25:52;;;;;;;;;;;13.30;55.60;;;;;;5053256;28;74428;-65
2021/05/01 01:28:18;;;;;;;;;;;13.20;55.90;;;;;;5052556;28;74403;-65
2021/05/01 01:30:43;;;;;;;;;;;13.20;56.10;;;;;;5052487;28;75287;-66
2021/05/01 01:33:10;;;;;;;;;;;13.10;56.10;;;;;;5052911;28;74350;-64
2021/05/01 01:35:36;;;;;;;;;;;13.10;56.20;;;;;;5050853;28;75617;-66
2021/05/01 01:38:02;;;;;;;;;;;13.00;56.40;;;;;;5050787;28;75705;-64
2021/05/01 01:40:28;;;;;;;;;;;13.00;56.60;;;;;;5052247;28;75826;-68
2021/05/01 01:42:54;;;;;;;;;;;13.00;56.80;;;;;;5052329;28;75717;-68
2021/05/01 01:45:21;;;;;;;;;;;12.90;57.00;;;;;;5050906;28;76547;-70
2021/05/01 01:47:47;;;;;;;;;;;12.90;56.90;;;;;;5052126;28;74522;-65
2021/05/01 01:50:14;;;;;;;;;;;12.80;57.10;;;;;;5052429;28;75266;-68
2021/05/01 01:52:40;;;;;;;;;;;12.70;57.30;;;;;;5050846;28;74678;-70
2021/05/01 01:55:10;;;;;;;;;;;12.80;57.30;;;;;;5050906;28;77478;-68
2021/05/01 01:57:35;;;;;;;;;;;12.70;57.50;;;;;;5050521;28;75966;-68
2021/05/01 02:00:03;;;;;;;;;;;12.70;57.70;;;;;;5052351;28;75224;-68
2021/05/01 02:02:29;;;;;;;;;;;12.70;57.90;;;;;;5052212;28;75183;-66
2021/05/01 02:04:55;;;;;;;;;;;12.60;58.30;;;;;;5050375;28;74621;-66
2021/05/01 02:07:20;;;;;;;;;;;12.50;58.10;;;;;;5050570;28;76458;-66
2021/05/01 02:09:46;;;;;;;;;;;12.50;58.10;;;;;;5084568;27;74524;-66
2021/05/01 02:12:12;;;;;;;;;;;12.40;58.00;;;;;;5050351;28;75194;-66
2021/05/01 02:14:38;;;;;;;;;;;12.50;57.80;;;;;;5050480;28;77412;-66
2021/05/01 02:17:03;;;;;;;;;;;12.40;57.80;;;;;;5050536;28;75409;-66
2021/05/01 02:19:29;;;;;;;;;;;12.40;57.80;;;;;;5050593;28;75122;-68
2021/05/01 02:21:55;;;;;;;;;;;12.40;57.70;;;;;;5050146;28;77480;-67
2021/05/01 02:24:20;;;;;;;;;;;12.40;57.80;;;;;;5052313;28;74566;-68
2021/05/01 02:26:46;;;;;;;;;;;12.40;57.80;;;;;;5049851;28;77740;-67
2021/05/01 02:29:11;;;;;;;;;;;12.30;57.90;;;;;;5084297;27;77365;-68
2021/05/01 02:31:37;;;;;;;;;;;12.30;58.20;;;;;;5052051;28;74418;-67
2021/05/01 02:34:03;;;;;;;;;;;12.20;58.20;;;;;;5054759;27;75119;-65
2021/05/01 02:36:28;;;;;;;;;;;12.20;58.50;;;;;;5053610;28;77149;-69
2021/05/01 02:38:54;;;;;;;;;;;12.20;58.70;;;;;;5055142;28;75155;-69
2021/05/01 02:41:22;;;;;;;;;;;12.20;58.70;;;;;;5053690;28;75867;-68
2021/05/01 02:43:48;;;;;;;;;;;12.10;58.90;;;;;;5053687;28;77978;-65
2021/05/01 02:46:14;;;;;;;;;;;12.20;58.90;;;;;;5055136;28;75742;-64
2021/05/01 02:48:39;;;;;;;;;;;12.20;59.00;;;;;;5053526;28;77599;-64
2021/05/01 02:51:05;;;;;;;;;;;12.10;59.10;;;;;;5053073;28;77319;-66
2021/05/01 02:53:31;;;;;;;;;;;12.00;59.20;;;;;;5053785;28;76571;-67
2021/05/01 02:55:56;;;;;;;;;;;12.00;59.30;;;;;;5087063;27;77680;-69
2021/05/01 02:58:22;;;;;;;;;;;11.90;59.50;;;;;;5055056;28;75091;-68
2021/05/01 03:00:47;;;;;;;;;;;11.90;59.70;;;;;;5053194;28;77238;-64
2021/05/01 03:03:13;;;;;;;;;;;11.90;59.80;;;;;;5055078;28;75199;-65
2021/05/01 03:05:39;;;;;;;;;;;11.90;60.00;;;;;;5052879;28;77116;-68
2021/05/01 03:08:05;;;;;;;;;;;11.90;60.10;;;;;;5052715;28;77218;-66
2021/05/01 03:10:30;;;;;;;;;;;11.80;60.10;;;;;;5054956;28;74965;-67
2021/05/01 03:12:56;;;;;;;;;;;11.80;60.20;;;;;;5053006;28;75823;-67
2021/05/01 03:15:23;;;;;;;;;;;11.80;60.30;;;;;;5054782;28;75211;-68
2021/05/01 03:17:48;;;;;;;;;;;11.80;60.30;;;;;;5055257;28;74384;-66
2021/05/01 03:20:14;;;;;;;;;;;11.70;60.40;;;;;;5054417;28;75453;-65
2021/05/01 03:22:40;;;;;;;;;;;11.70;60.40;;;;;;5054792;28;75774;-65
2021/05/01 03:25:07;;;;;;;;;;;11.70;60.40;;;;;;5054482;28;75372;-65
2021/05/01 03:27:33;;;;;;;;;;;11.70;60.60;;;;;;5052583;28;77424;-63
2021/05/01 03:29:58;;;;;;;;;;;11.60;60.60;;;;;;5054414;28;74601;-65
2021/05/01 03:32:24;;;;;;;;;;;11.60;60.70;;;;;;5054596;28;75198;-66
2021/05/01 03:34:50;;;;;;;;;;;11.50;61.10;;;;;;5052643;28;76483;-65
2021/05/01 03:37:15;;;;;;;;;;;11.50;61.40;;;;;;5054659;28;75571;-64
2021/05/01 03:39:41;;;;;;;;;;;11.40;61.40;;;;;;5054198;28;75084;-66
2021/05/01 03:42:07;;;;;;;;;;;11.40;61.30;;;;;;5052267;28;77317;-67
2021/05/01 03:44:32;;;;;;;;;;;11.40;61.50;;;;;;5051946;27;76703;-66
2021/05/01 03:46:58;;;;;;;;;;;11.40;61.40;;;;;;5053992;28;75066;-68
2021/05/01 03:49:24;;;;;;;;;;;11.40;61.50;;;;;;5052471;28;76409;-67
2021/05/01 03:51:50;;;;;;;;;;;11.40;61.60;;;;;;5052201;28;77532;-68
2021/05/01 03:54:15;;;;;;;;;;;11.40;61.70;;;;;;5054014;28;74638;-65
2021/05/01 03:56:41;;;;;;;;;;;11.30;61.70;;;;;;5054262;28;74625;-68
2021/05/01 03:59:06;;;;;;;;;;;11.30;61.80;;;;;;5052145;28;75897;-68
2021/05/01 04:01:32;;;;;;;;;;;11.30;62.00;;;;;;5052325;28;77342;-68
2021/05/01 04:03:58;;;;;;;;;;;11.30;62.10;;;;;;5053402;27;75041;-67
2021/05/01 04:06:23;;;;;;;;;;;11.20;62.10;;;;;;5052109;28;75953;-69
2021/05/01 04:08:49;;;;;;;;;;;11.20;62.30;;;;;;5052048;28;77454;-68
2021/05/01 04:11:14;;;;;;;;;;;11.20;62.40;;;;;;5052341;28;75340;-67
2021/05/01 04:13:47;;;;;;;;;;;11.20;62.50;;;;;;5053859;28;74489;-69
2021/05/01 04:16:15;;;;;;;;;;;11.20;62.60;;;;;;5053651;28;74864;-68
2021/05/01 04:18:41;;;;;;;;;;;11.20;62.70;;;;;;5051898;28;78442;-66
2021/05/01 04:21:07;;;;;;;;;;;11.20;62.70;;;;;;5052091;28;76457;-66
2021/05/01 04:23:33;;;;;;;;;;;11.20;62.70;;;;;;5053527;28;75178;-68
2021/05/01 04:25:58;;;;;;;;;;;11.10;62.80;;;;;;5052144;28;75370;-67
2021/05/01 04:28:24;;;;;;;;;;;11.10;62.90;;;;;;5051605;28;74554;-67
2021/05/01 04:30:50;;;;;;;;;;;11.10;63.00;;;;;;5052115;28;75775;-68
2021/05/01 04:33:16;;;;;;;;;;;11.10;63.20;;;;;;5053523;28;75631;-68
2021/05/01 04:35:41;;;;;;;;;;;11.10;63.30;;;;;;5052002;28;75305;-66
2021/05/01 04:38:07;;;;;;;;;;;11.10;63.20;;;;;;5051579;28;75582;-65
2021/05/01 04:40:33;;;;;;;;;;;11.10;63.30;;;;;;5051511;28;77099;-64
2021/05/01 04:43:02;;;;;;;;;;;11.10;63.30;;;;;;5051399;28;76230;-64
2021/05/01 04:45:28;;;;;;;;;;;11.10;63.40;;;;;;5051706;27;75279;-65
2021/05/01 04:47:54;;;;;;;;;;;11.10;63.40;;;;;;5053046;28;75206;-64
2021/05/01 04:50:19;;;;;;;;;;;11.10;63.40;;;;;;5085461;27;77579;-64
2021/05/01 04:52:45;;;;;;;;;;;11.10;63.40;;;;;;5053229;28;74971;-64
2021/05/01 04:55:14;;;;;;;;;;;11.00;63.50;;;;;;5051369;27;76776;-65
2021/05/01 04:57:43;;;;;;;;;;;11.10;63.70;;;;;;5052917;28;75032;-64
2021/05/01 05:00:09;;;;;;;;;;;11.00;63.60;;;;;;5051549;27;77622;-65
2021/05/01 05:02:35;;;;;;;;;;;11.00;63.90;;;;;;5051325;28;75436;-63
2021/05/01 05:05:01;;;;;;;;;;;11.00;63.90;;;;;;5050964;28;76279;-68
2021/05/01 05:07:27;;;;;;;;;;;11.10;64.00;;;;;;5052735;28;75007;-66
2021/05/01 05:09:53;;;;;;;;;;;11.10;64.00;;;;;;5051186;28;77497;-66
2021/05/01 05:12:18;;;;;;;;;;;11.10;64.00;;;;;;5052693;28;75116;-68
2021/05/01 05:14:44;;;;;;;;;;;11.10;63.90;;;;;;5052709;28;75361;-68
2021/05/01 05:17:09;;;;;;;;;;;11.10;63.90;;;;;;5052703;28;75003;-65
2021/05/01 05:19:35;;;;;;;;;;;11.10;63.80;;;;;;5051226;28;74686;-69
2021/05/01 05:22:01;;;;;;;;;;;11.10;63.80;;;;;;5053468;28;74473;-68
2021/05/01 05:24:26;;;;;;;;;;;11.10;63.70;;;;;;5052411;28;75090;-63
2021/05/01 05:26:53;;;;;;;;;;;11.10;63.70;;;;;;5050882;28;77283;-63
2021/05/01 05:29:19;;;;;;;;;;;11.10;63.80;;;;;;5052743;28;75147;-63
2021/05/01 05:31:44;;;;;;;;;;;11.10;63.80;;;;;;5050576;28;77549;-64
2021/05/01 05:34:10;;;;;;;;;;;11.20;63.80;;;;;;5050892;28;75378;-66
2021/05/01 05:36:35;;;;;;;;;;;11.30;63.60;;;;;;5051000;27;75497;-68
2021/05/01 05:39:02;;;;;;;;;;;11.40;63.30;;;;;;5051046;28;75467;-65
2021/05/01 05:41:29;;;;;;;;;;;11.40;63.20;;;;;;5052317;28;75441;-66
2021/05/01 05:43:54;;;;;;;;;;;11.40;62.90;;;;;;5052483;28;74577;-65
2021/05/01 05:46:20;;;;;;;;;;;11.50;63.00;;;;;;5050920;28;78458;-63
2021/05/01 05:48:46;;;;;;;;;;;11.50;62.80;;;;;;5052031;28;75085;-67
2021/05/01 05:51:11;;;;;;;;;;;11.60;62.70;;;;;;5052123;27;75208;-63
2021/05/01 05:53:37;;;;;;;;;;;11.70;62.60;;;;;;5050281;28;75900;-66
2021/05/01 05:56:03;;;;;;;;;;;11.80;62.40;;;;;;5084480;27;77494;-67
2021/05/01 05:58:28;;;;;;;;;;;11.90;62.20;;;;;;5050944;28;77381;-68
2021/05/01 06:00:54;;;;;;;;;;;11.90;62.10;;;;;;5050591;28;77997;-69
2021/05/01 06:03:22;;;;;;;;;;;12.00;62.00;;;;;;5052561;28;74362;-67
2021/05/01 06:05:50;;;;;;;;;;;12.00;61.90;;;;;;5084477;27;76485;-68
2021/05/01 06:08:16;;;;;;;;;;;11.90;62.00;;;;;;5052353;28;75627;-68
2021/05/01 06:10:43;;;;;;;;;;;11.90;62.10;;;;;;5054204;28;77021;-68
2021/05/01 06:13:10;;;;;;;;;;;12.00;62.10;;;;;;5055550;28;75187;-65
2021/05/01 06:15:37;;;;;;;;;;;12.10;61.80;;;;;;5055767;28;75007;-65
2021/05/01 06:18:03;;;;;;;;;;;12.00;61.40;;;;;;5053981;28;75516;-64
2021/05/01 06:20:29;;;;;;;;;;;12.00;61.30;;;;;;5054103;28;78362;-70
2021/05/01 06:22:55;;;;;;;;;;;11.90;61.50;;;;;;5055198;28;75800;-64
2021/05/01 06:25:21;;;;;;;;;;;11.80;61.50;;;;;;5055563;28;75190;-65
2021/05/01 06:27:50;;;;;;;;;;;11.80;61.60;;;;;;5087713;27;76613;-65
2021/05/01 06:30:16;;;;;;;;;;;11.70;61.80;;;;;;5055673;28;74421;-64
2021/05/01 06:32:42;;;;;;;;;;;11.70;61.80;;;;;;5055415;28;75781;-67
2021/05/01 06:35:07;;;;;;;;;;;11.80;61.60;;;;;;5055308;28;75182;-67
2021/05/01 06:37:34;;;;;;;;;;;11.80;61.60;;;;;;5053753;28;77815;-63
2021/05/01 06:40:07;;;;;;;;;;;11.80;61.50;;;;;;5087858;27;75954;-66
2021/05/01 06:42:35;;;;;;;;;;;11.80;61.70;;;;;;5055242;28;75400;-68
2021/05/01 06:45:03;;;;;;;;;;;11.80;61.50;;;;;;5055967;28;74683;-70
2021/05/01 06:47:31;;;;;;;;;;;11.80;61.50;;;;;;5056129;28;75054;-69
2021/05/01 06:49:57;;;;;;;;;;;11.90;61.70;;;;;;5053641;28;77694;-68
2021/05/01 06:52:24;;;;;;;;;;;11.90;61.50;;;;;;5053529;28;75391;-68
2021/05/01 06:54:50;;;;;;;;;;;11.90;61.60;;;;;;5036887;28;74578;-67
2021/05/01 06:57:20;;;;;;;;;;;11.90;61.60;;;;;;5055143;27;75203;-69
2021/05/01 06:59:46;;;;;;;;;;;11.90;61.50;;;;;;5055417;27;75160;-64
2021/05/01 07:02:11;;;;;;;;;;;11.90;61.70;;;;;;5053056;28;75104;-66
2021/05/01 07:04:37;;;;;;;;;;;12.10;61.70;;;;;;5053661;28;76309;-66
2021/05/01 07:07:03;;;;;;;;;;;12.20;61.50;;;;;;5053558;28;74492;-67
2021/05/01 07:09:30;;;;;;;;;;;12.30;61.00;;;;;;5054897;28;75875;-66
2021/05/01 07:11:55;;;;;;;;;;;12.40;60.90;;;;;;5053338;28;77310;-64
2021/05/01 07:14:21;;;;;;;;;;;12.50;60.60;;;;;;5053216;28;74675;-66
2021/05/01 07:16:46;;;;;;;;;;;12.50;60.20;;;;;;5055057;28;75390;-69
2021/05/01 07:19:13;;;;;;;;;;;12.60;60.20;;;;;;5053792;28;75024;-70
2021/05/01 07:21:38;;;;;;;;;;;12.70;60.10;;;;;;5053215;28;75343;-65
2021/05/01 07:24:04;;;;;;;;;;;12.90;59.60;;;;;;5053594;28;75529;-67
2021/05/01 07:26:33;;;;;;;;;;;12.80;59.50;;;;;;5054591;28;75135;-68
2021/05/01 07:29:02;;;;;;;;;;;12.90;59.50;;;;;;5053089;28;76488;-68
2021/05/01 07:31:29;;;;;;;;;;;13.00;59.40;;;;;;5052611;28;75926;-67
2021/05/01 07:33:56;;;;;;;;;;;13.20;59.00;;;;;;5053353;28;75500;-66
2021/05/01 07:36:33;;;;;;;;;;;13.40;58.60;;;;;;5054770;28;75459;-66
2021/05/01 07:39:00;;;;;;;;;;;13.50;58.30;;;;;;5052859;28;77275;-66
2021/05/01 07:41:26;;;;;;;;;;;13.60;58.00;;;;;;5053576;28;78071;-66
2021/05/01 07:43:52;;;;;;;;;;;13.70;57.80;;;;;;5054314;28;75072;-67
2021/05/01 07:46:22;;;;;;;;;;;13.80;57.60;;;;;;5053249;28;74783;-67
2021/05/01 07:48:48;;;;;;;;;;;13.80;57.30;;;;;;5054474;27;75198;-66
2021/05/01 07:51:14;;;;;;;;;;;13.80;57.30;;;;;;5054810;28;74501;-66
2021/05/01 07:53:41;;;;;;;;;;;13.80;57.30;;;;;;5053566;28;76847;-68
2021/05/01 07:56:07;;;;;;;;;;;13.90;57.10;;;;;;5052787;28;75188;-69
2021/05/01 07:58:32;;;;;;;;;;;13.90;56.90;;;;;;5054453;27;74397;-68
2021/05/01 08:00:58;;;;;;;;;;;13.90;56.40;;;;;;5054211;28;75087;-67
2021/05/01 08:03:24;;;;;;;;;;;13.90;56.20;;;;;;5052551;28;74888;-68
2021/05/01 08:05:50;;;;;;;;;;;14.00;56.20;;;;;;5052063;28;77009;-65
2021/05/01 08:08:15;;;;;;;;;;;14.10;55.70;;;;;;5054441;28;74579;-68
2021/05/01 08:10:42;;;;;;;;;;;14.20;55.20;;;;;;5053865;27;75617;-68
2021/05/01 08:13:08;;;;;;;;;;;14.20;55.10;;;;;;5053873;28;74493;-67
2021/05/01 08:15:34;;;;;;;;;;;14.40;54.90;;;;;;5052596;28;77563;-67
2021/05/01 08:18:02;;;;;;;;;;;14.70;53.70;;;;;;5052117;28;74635;-68
2021/05/01 08:20:28;;;;;;;;;;;14.80;52.30;;;;;;5051942;28;76483;-69
2021/05/01 08:22:55;;;;;;;;;;;14.70;53.10;;;;;;5052239;28;75715;-66
2021/05/01 08:25:21;;;;;;;;;;;14.60;52.70;;;;;;5053864;27;75193;-68
2021/05/01 08:27:46;;;;;;;;;;;14.40;53.40;;;;;;5052087;28;76403;-68
2021/05/01 08:30:15;;;;;;;;;;;14.40;53.20;;;;;;5053218;27;75206;-69
2021/05/01 08:32:41;;;;;;;;;;;14.40;54.00;;;;;;5052105;28;76482;-69
2021/05/01 08:35:07;;;;;;;;;;;14.60;53.30;;;;;;5053835;28;74614;-70
2021/05/01 08:37:33;;;;;;;;;;;14.70;53.40;;;;;;5053694;28;75177;-67
2021/05/01 08:39:58;;;;;;;;;;;14.90;52.30;;;;;;5052033;28;78237;-69
2021/05/01 08:42:25;;;;;;;;;;;15.20;52.10;;;;;;5050846;28;77165;-70
2021/05/01 08:44:51;;;;;;;;;;;15.40;50.60;;;;;;5049917;28;77362;-70
2021/05/01 08:47:16;;;;;;;;;;;15.60;50.60;;;;;;5051968;28;77380;-70
2021/05/01 08:49:42;;;;;;;;;;;16.00;50.30;;;;;;5052066;28;75157;-68
2021/05/01 08:52:09;;;;;;;;;;;16.40;50.00;;;;;;5053641;28;74456;-68
2021/05/01 08:54:35;;;;;;;;;;;16.60;48.40;;;;;;5051771;28;77586;-67
2021/05/01 08:57:01;;;;;;;;;;;16.50;48.40;;;;;;5053062;28;75019;-68
2021/05/01 08:59:27;;;;;;;;;;;16.60;48.90;;;;;;5051831;28;77354;-68
2021/05/01 09:01:53;;;;;;;;;;;16.90;47.80;;;;;;5053303;28;74887;-69
2021/05/01 09:04:18;;;;;;;;;;;17.00;47.20;;;;;;5052628;28;75111;-68
2021/05/01 09:06:45;;;;;;;;;;;17.20;47.50;;;;;;5051545;28;77401;-68
2021/05/01 09:09:12;;;;;;;;;;;17.20;47.70;;;;;;5052180;27;95996;-68
2021/05/01 09:11:38;;;;;;;;;;;17.10;48.10;;;;;;5053123;28;75101;-67
2021/05/01 09:14:15;;;;;;;;;;;17.00;47.90;;;;;;5051303;28;77531;-68
2021/05/01 09:16:41;;;;;;;;;;;17.00;47.40;;;;;;5051533;28;77573;-72
2021/05/01 09:19:06;;;;;;;;;;;16.90;48.50;;;;;;5053201;28;75702;-70
2021/05/01 09:21:32;;;;;;;;;;;16.90;48.90;;;;;;5052902;28;75732;-68
2021/05/01 09:23:58;;;;;;;;;;;17.00;49.10;;;;;;5052797;28;75218;-69
2021/05/01 09:26:34;;;;;;;;;;;17.40;48.70;;;;;;5049060;28;75385;-69
2021/05/01 09:29:00;;;;;;;;;;;17.70;48.50;;;;;;5052832;27;75021;-68
2021/05/01 09:31:29;;;;;;;;;;;18.00;47.30;;;;;;5051278;28;75664;-67
2021/05/01 09:33:55;;;;;;;;;;;18.20;46.20;;;;;;5052802;27;75217;-70
2021/05/01 09:36:22;;;;;;;;;;;18.10;46.70;;;;;;5051109;28;74622;-68
2021/05/01 09:38:48;;;;;;;;;;;18.10;46.80;;;;;;5051323;28;75650;-69
2021/05/01 09:41:24;;;;;;;;;;;18.10;45.70;;;;;;5051301;28;78187;-67
2021/05/01 09:44:08;;;;;;;;;;;17.90;45.00;;;;;;5051540;28;75775;-69
2021/05/01 09:46:37;;;;;;;;;;;17.70;45.30;;;;;;5051196;28;76524;-68
2021/05/01 09:49:04;;;;;;;;;;;17.60;45.10;;;;;;5051001;28;77600;-68
2021/05/01 09:51:45;;;;;;;;;;;17.70;43.40;;;;;;5052483;27;75256;-68
2021/05/01 09:54:12;;;;;;;;;;;17.80;42.10;;;;;;5050957;28;77189;-68
2021/05/01 09:56:41;;;;;;;;;;;17.90;43.80;;;;;;5052388;28;75219;-68
2021/05/01 09:59:07;;;;;;;;;;;18.10;44.00;;;;;;5052268;28;74878;-68
2021/05/01 10:01:33;;;;;;;;;;;18.40;44.00;;;;;;5052296;28;75423;-69
2021/05/01 10:04:09;;;;;;;;;;;18.90;43.10;;;;;;5052167;28;75009;-68
2021/05/01 10:06:35;;;;;;;;;;;19.40;41.90;;;;;;5050470;28;77485;-68
2021/05/01 10:09:02;;;;;;;;;;;19.30;39.40;;;;;;5050661;28;77924;-69
2021/05/01 10:11:29;;;;;;;;;;;19.00;40.70;;;;;;5051899;27;75269;-68
2021/05/01 10:13:55;;;;;;;;;;;18.90;41.20;;;;;;5051914;28;75083;-68
2021/05/01 10:16:22;;;;;;;;;;;18.70;40.30;;;;;;5050555;28;75333;-68
2021/05/01 10:19:06;;;;;;;;;;;18.40;41.60;;;;;;5050301;28;77454;-68
2021/05/01 10:21:32;;;;;;;;;;;18.40;39.80;;;;;;5050372;28;77716;-70
2021/05/01 10:23:58;;;;;;;;;;;18.80;40.30;;;;;;5050405;28;78347;-68
2021/05/01 10:26:24;;;;;;;;;;;19.40;39.00;;;;;;5050574;28;75577;-68
2021/05/01 10:28:51;;;;;;;;;;;19.90;37.20;;;;;;5050387;28;75941;-67
2021/05/01 10:31:20;;;;;;;;;;;20.30;35.60;;;;;;5050199;28;76298;-68
2021/05/01 10:33:46;;;;;;;;;;;20.50;37.20;;;;;;5049968;28;76105;-67
2021/05/01 10:36:12;;;;;;;;;;;20.40;35.20;;;;;;5051684;27;75288;-67
2021/05/01 10:38:38;;;;;;;;;;;19.80;36.20;;;;;;5051916;28;75153;-70
2021/05/01 10:41:05;;;;;;;;;;;19.30;37.20;;;;;;5050418;28;74690;-71
2021/05/01 10:43:31;;;;;;;;;;;18.90;37.60;;;;;;5052031;27;74575;-73
2021/05/01 10:46:05;;;;;;;;;;;18.60;38.00;;;;;;5050382;28;77473;-68
2021/05/01 10:48:51;;;;;;;;;;;18.40;37.70;;;;;;5050214;28;75542;-67
2021/05/01 10:51:18;;;;;;;;;;;18.10;36.50;;;;;;5049544;28;75683;-69
2021/05/01 10:53:44;;;;;;;;;;;17.80;37.40;;;;;;5051008;27;75635;-68
2021/05/01 10:56:11;;;;;;;;;;;17.70;37.20;;;;;;5053985;28;77412;-67
2021/05/01 10:58:42;;;;;;;;;;;17.70;38.50;;;;;;5054916;27;75188;-67
2021/05/01 11:01:10;;;;;;;;;;;18.00;37.50;;;;;;5053561;28;78412;-69
2021/05/01 11:03:41;;;;;;;;;;;18.00;37.40;;;;;;5053404;28;77363;-70
2021/05/01 11:06:07;;;;;;;;;;;18.10;37.90;;;;;;5053159;28;75507;-69
2021/05/01 11:08:40;;;;;;;;;;;19.50;35.90;;;;;;5055239;28;75076;-68
2021/05/01 11:11:11;;;;;;;;;;;21.20;33.20;;;;;;5053160;28;75296;-70
2021/05/01 11:13:39;;;;;;;;;;;22.90;32.80;;;;;;5053225;28;77195;-70
2021/05/01 11:16:05;;;;;;;;;;;24.50;29.60;;;;;;5053225;28;75796;-70
2021/05/01 11:18:34;;;;;;;;;;;25.10;26.90;;;;;;5053366;28;75526;-67
2021/05/01 11:21:00;;;;;;;;;;;25.90;27.70;;;;;;5053107;28;76520;-66
2021/05/01 11:23:28;;;;;;;;;;;27.50;24.30;;;;;;5053024;28;75355;-67
2021/05/01 11:25:56;;;;;;;;;;;28.90;25.40;;;;;;5053406;28;77750;-69
2021/05/01 11:28:25;;;;;;;;;;;30.20;23.70;;;;;;5054368;27;75156;-69
2021/05/01 11:30:52;;;;;;;;;;;31.60;23.00;;;;;;5054835;28;75119;-68
2021/05/01 11:33:21;;;;;;;;;;;31.30;22.70;;;;;;5054384;28;75675;-69
2021/05/01 11:35:48;;;;;;;;;;;29.50;24.10;;;;;;5052367;28;77233;-68
2021/05/01 11:38:23;;;;;;;;;;;28.20;24.50;;;;;;5054693;27;75468;-73
2021/05/01 11:40:51;;;;;;;;;;;26.20;27.50;;;;;;5052983;28;75828;-69
2021/05/01 11:43:17;;;;;;;;;;;26.20;26.70;;;;;;5054063;28;75521;-69
2021/05/01 11:45:42;;;;;;;;;;;28.40;24.70;;;;;;5054237;28;74552;-71
2021/05/01 11:48:10;;;;;;;;;;;31.30;22.90;;;;;;5054333;28;75144;-68
2021/05/01 11:50:37;;;;;;;;;;;33.70;20.60;;;;;;5054265;28;74515;-67
2021/05/01 11:53:18;;;;;;;;;;;34.80;19.20;;;;;;5054246;27;75169;-67
2021/05/01 11:55:58;;;;;;;;;;;35.30;18.80;;;;;;5052371;28;76027;-67
2021/05/01 11:58:32;;;;;;;;;;;36.30;17.60;;;;;;5052339;28;76297;-65
2021/05/01 12:01:16;;;;;;;;;;;35.30;18.30;;;;;;5052377;28;76181;-68
2021/05/01 12:03:52;;;;;;;;;;;35.30;19.20;;;;;;5054175;27;75203;-67
2021/05/01 12:06:20;;;;;;;;;;;37.10;18.50;;;;;;5051578;27;78236;-68
2021/05/01 12:08:47;;;;;;;;;;;38.30;17.30;;;;;;5054147;28;74507;-67
2021/05/01 12:11:15;;;;;;;;;;;38.90;16.60;;;;;;5052310;28;75788;-73
2021/05/01 12:13:42;;;;;;;;;;;39.90;16.70;;;;;;5053800;28;74508;-70
2021/05/01 12:16:21;;;;;;;;;;;41.30;16.00;;;;;;5050899;28;75501;-71
2021/05/01 12:18:47;;;;;;;;;;;41.90;14.70;;;;;;5050562;28;76924;-70
2021/05/01 12:21:16;;;;;;;;;;;39.90;16.40;;;;;;5050586;28;75577;-71
2021/05/01 12:23:46;;;;;;;;;;;36.30;18.30;;;;;;5050702;28;75718;-68
2021/05/01 12:26:31;;;;;;;;;;;36.10;17.70;;;;;;5051795;28;75456;-68
2021/05/01 12:29:16;;;;;;;;;;;38.00;16.10;;;;;;5047782;28;75410;-66
2021/05/01 12:31:42;;;;;;;;;;;35.20;17.20;;;;;;5050096;27;77174;-68
2021/05/01 12:34:07;;;;;;;;;;;32.60;20.00;;;;;;5050403;28;77926;-69
2021/05/01 12:36:33;;;;;;;;;;;31.40;20.50;;;;;;5051776;28;74727;-67
2021/05/01 12:38:59;;;;;;;;;;;29.70;22.00;;;;;;5051700;28;74923;-68
2021/05/01 12:41:29;;;;;;;;;;;31.10;22.00;;;;;;5051931;27;75029;-69
2021/05/01 12:43:54;;;;;;;;;;;32.70;18.90;;;;;;5051726;28;75824;-72
2021/05/01 12:46:29;;;;;;;;;;;30.40;19.70;;;;;;5052567;28;75800;-68
2021/05/01 12:48:58;;;;;;;;;;;28.50;22.20;;;;;;5053398;27;75133;-70
2021/05/01 12:51:28;;;;;;;;;;;27.00;24.60;;;;;;5054139;27;74388;-68
2021/05/01 12:53:58;;;;;;;;;;;25.70;25.00;;;;;;5051869;28;77621;-69
2021/05/01 12:56:31;;;;;;;;;;;24.70;26.40;;;;;;5053616;27;75064;-72
2021/05/01 12:59:16;;;;;;;;;;;24.10;27.60;;;;;;5052777;27;74548;-69
2021/05/01 13:01:41;;;;;;;;;;;23.60;27.60;;;;;;5051588;28;77240;-68
2021/05/01 13:04:19;;;;;;;;;;;23.10;26.90;;;;;;5052755;27;75124;-69
2021/05/01 13:06:46;;;;;;;;;;;22.60;27.90;;;;;;5051400;28;77546;-68
2021/05/01 13:09:12;;;;;;;;;;;22.40;27.60;;;;;;5051499;28;74780;-71
2021/05/01 13:11:38;;;;;;;;;;;22.90;28.00;;;;;;5051252;28;75456;-70
2021/05/01 13:14:20;;;;;;;;;;;25.20;27.00;;;;;;5052772;27;74422;-72
2021/05/01 13:16:58;;;;;;;;;;;28.00;23.60;;;;;;5051504;27;75179;-71
2021/05/01 13:19:28;;;;;;;;;;;30.30;22.30;;;;;;5051696;28;74733;-70
2021/05/01 13:21:58;;;;;;;;;;;33.60;19.50;;;;;;5052776;27;75683;-72
2021/05/01 13:24:36;;;;;;;;;;;34.00;19.20;;;;;;5051133;28;77283;-70
2021/05/01 13:27:02;;;;;;;;;;;32.20;19.00;;;;;;5051597;27;76130;-68
2021/05/01 13:29:32;;;;;;;;;;;29.60;22.10;;;;;;5052361;27;75676;-70
2021/05/01 13:31:58;;;;;;;;;;;27.80;23.20;;;;;;5051169;28;76934;-69
2021/05/01 13:34:23;;;;;;;;;;;26.20;23.90;;;;;;5052632;27;75092;-67
2021/05/01 13:36:49;;;;;;;;;;;24.90;24.30;;;;;;5051047;27;75686;-70
2021/05/01 13:39:22;;;;;;;;;;;23.90;26.40;;;;;;5052551;27;75057;-68
2021/05/01 13:42:00;;;;;;;;;;;23.00;26.90;;;;;;5052677;27;75705;-69
2021/05/01 13:44:38;;;;;;;;;;;22.50;27.40;;;;;;5052466;27;74501;-70
2021/05/01 13:47:05;;;;;;;;;;;21.90;27.90;;;;;;5052637;28;75640;-67
2021/05/01 13:49:30;;;;;;;;;;;21.60;28.70;;;;;;5052661;27;74964;-68
2021/05/01 13:51:56;;;;;;;;;;;21.30;28.90;;;;;;5052338;27;75143;-68
2021/05/01 13:54:29;;;;;;;;;;;21.00;28.90;;;;;;5052903;27;74342;-68
2021/05/01 13:56:55;;;;;;;;;;;20.70;29.10;;;;;;5050620;28;77729;-69
2021/05/01 13:59:28;;;;;;;;;;;20.40;30.00;;;;;;5052340;27;75145;-71
2021/05/01 14:01:54;;;;;;;;;;;20.40;29.70;;;;;;5052351;27;75188;-72
2021/05/01 14:04:49;;;;;;;;;;;20.30;30.10;;;;;;5050434;28;75184;-72
2021/05/01 14:07:15;;;;;;;;;;;20.20;30.00;;;;;;5036728;28;76627;-70
2021/05/01 14:09:40;;;;;;;;;;;20.20;30.30;;;;;;5050538;28;77155;-71
2021/05/01 14:12:07;;;;;;;;;;;20.30;30.10;;;;;;5052095;27;75658;-70
2021/05/01 14:14:36;;;;;;;;;;;20.30;30.10;;;;;;5051990;28;75611;-70
2021/05/01 14:17:05;;;;;;;;;;;20.30;29.70;;;;;;5052182;27;75201;-67